sensor_id;sensor_type;location;lat;lon;timestamp;pressure;altitude;pressure_sealevel;temperature;humidity
64189;BME280;50493;50.970;10.082;2022-11-20T00:00:42;98996.75;;;-4.37;73.00
64189;BME280;50493;50.970;10.082;2022-11-20T00:03:08;99001.75;;;-3.85;72.00
64189;BME280;50493;50.970;10.082;2022-11-20T00:05:33;98990.69;;;-3.55;70.22
64189;BME280;50493;50.970;10.082;2022-11-20T00:08:00;98993.38;;;-3.20;68.39
64189;BME280;50493;50.970;10.082;2022-11-20T00:10:25;98990.88;;;-3.78;68.85
64189;BME280;50493;50.970;10.082;2022-11-20T00:12:51;98987.47;;;-3.48;70.01
64189;BME280;50493;50.970;10.082;2022-11-20T00:15:17;98984.47;;;-3.03;61.77
64189;BME280;50493;50.970;10.082;2022-11-20T00:17:42;98979.72;;;-3.19;62.32
64189;BME280;50493;50.970;10.082;2022-11-20T00:20:09;98983.22;;;-3.47;61.24
64189;BME280;50493;50.970;10.082;2022-11-20T00:22:34;98986.44;;;-3.24;58.73
64189;BME280;50493;50.970;10.082;2022-11-20T00:25:01;98981.63;;;-3.44;65.33
64189;BME280;50493;50.970;10.082;2022-11-20T00:27:27;98983.03;;;-3.55;67.93
64189;BME280;50493;50.970;10.082;2022-11-20T00:29:52;98980.88;;;-3.40;66.10
64189;BME280;50493;50.970;10.082;2022-11-20T00:32:17;98989.59;;;-3.63;70.30
64189;BME280;50493;50.970;10.082;2022-11-20T00:34:43;98977.19;;;-3.51;69.05
64189;BME280;50493;50.970;10.082;2022-11-20T00:37:08;98977.47;;;-3.08;65.17
64189;BME280;50493;50.970;10.082;2022-11-20T00:39:34;98974.91;;;-3.40;69.43
64189;BME280;50493;50.970;10.082;2022-11-20T00:42:00;98979.66;;;-3.83;61.02
64189;BME280;50493;50.970;10.082;2022-11-20T00:44:26;98980.28;;;-4.19;63.55
64189;BME280;50493;50.970;10.082;2022-11-20T00:46:51;98979.78;;;-4.34;63.23
64189;BME280;50493;50.970;10.082;2022-11-20T00:49:17;98986.25;;;-4.19;66.90
64189;BME280;50493;50.970;10.082;2022-11-20T00:51:42;98978.44;;;-3.96;70.87
64189;BME280;50493;50.970;10.082;2022-11-20T00:54:07;98979.50;;;-3.28;64.09
64189;BME280;50493;50.970;10.082;2022-11-20T00:56:33;98988.03;;;-3.58;63.06
64189;BME280;50493;50.970;10.082;2022-11-20T00:59:00;98981.16;;;-4.46;67.51
64189;BME280;50493;50.970;10.082;2022-11-20T01:01:26;98987.50;;;-4.33;63.84
64189;BME280;50493;50.970;10.082;2022-11-20T01:03:55;98992.94;;;-5.72;65.75
64189;BME280;50493;50.970;10.082;2022-11-20T01:06:23;98988.69;;;-5.25;72.95
64189;BME280;50493;50.970;10.082;2022-11-20T01:08:49;98982.16;;;-4.66;72.31
64189;BME280;50493;50.970;10.082;2022-11-20T01:11:17;98972.81;;;-4.67;64.41
64189;BME280;50493;50.970;10.082;2022-11-20T01:13:44;98979.75;;;-5.38;69.15
64189;BME280;50493;50.970;10.082;2022-11-20T01:16:13;98976.41;;;-5.37;67.26
64189;BME280;50493;50.970;10.082;2022-11-20T01:18:41;98969.72;;;-5.09;68.00
64189;BME280;50493;50.970;10.082;2022-11-20T01:21:08;98972.69;;;-5.21;63.55
64189;BME280;50493;50.970;10.082;2022-11-20T01:23:35;98973.00;;;-4.87;69.71
64189;BME280;50493;50.970;10.082;2022-11-20T01:26:02;98964.09;;;-5.24;66.56
64189;BME280;50493;50.970;10.082;2022-11-20T01:28:28;98962.47;;;-4.96;63.12
64189;BME280;50493;50.970;10.082;2022-11-20T01:30:53;98962.47;;;-4.96;66.29
64189;BME280;50493;50.970;10.082;2022-11-20T01:33:20;98960.19;;;-4.89;66.43
64189;BME280;50493;50.970;10.082;2022-11-20T01:35:45;98958.00;;;-5.04;72.51
64189;BME280;50493;50.970;10.082;2022-11-20T01:38:11;98945.56;;;-5.44;68.52
64189;BME280;50493;50.970;10.082;2022-11-20T01:40:36;98946.25;;;-5.24;69.26
64189;BME280;50493;50.970;10.082;2022-11-20T01:43:12;98942.78;;;-5.26;65.90
64189;BME280;50493;50.970;10.082;2022-11-20T01:48:46;98933.09;;;-5.37;67.34
64189;BME280;50493;50.970;10.082;2022-11-20T01:51:18;98926.25;;;-4.88;66.64
64189;BME280;50493;50.970;10.082;2022-11-20T01:53:47;98938.53;;;-4.21;72.77
64189;BME280;50493;50.970;10.082;2022-11-20T01:56:14;98939.53;;;-3.87;69.29
64189;BME280;50493;50.970;10.082;2022-11-20T01:58:43;98937.16;;;-3.81;70.30
64189;BME280;50493;50.970;10.082;2022-11-20T02:01:12;98928.41;;;-3.59;68.75
64189;BME280;50493;50.970;10.082;2022-11-20T02:03:38;98930.88;;;-4.21;66.69
64189;BME280;50493;50.970;10.082;2022-11-20T02:06:11;98924.00;;;-3.64;70.23
64189;BME280;50493;50.970;10.082;2022-11-20T02:08:38;98922.19;;;-3.37;69.14
64189;BME280;50493;50.970;10.082;2022-11-20T02:11:04;98915.00;;;-3.18;67.62
64189;BME280;50493;50.970;10.082;2022-11-20T02:13:29;98914.69;;;-2.97;65.69
64189;BME280;50493;50.970;10.082;2022-11-20T02:16:14;98915.88;;;-2.83;66.08
64189;BME280;50493;50.970;10.082;2022-11-20T02:18:41;98919.31;;;-2.82;66.22
64189;BME280;50493;50.970;10.082;2022-11-20T02:21:14;98921.19;;;-2.75;65.82
64189;BME280;50493;50.970;10.082;2022-11-20T02:23:58;98921.25;;;-2.72;64.56
64189;BME280;50493;50.970;10.082;2022-11-20T02:26:25;98921.50;;;-2.62;64.75
64189;BME280;50493;50.970;10.082;2022-11-20T02:28:53;98917.22;;;-2.63;65.01
64189;BME280;50493;50.970;10.082;2022-11-20T02:31:19;98916.66;;;-2.50;64.26
64189;BME280;50493;50.970;10.082;2022-11-20T02:33:44;98909.91;;;-2.46;64.41
64189;BME280;50493;50.970;10.082;2022-11-20T02:36:12;98912.50;;;-2.45;64.04
64189;BME280;50493;50.970;10.082;2022-11-20T02:38:40;98908.78;;;-2.59;64.09
64189;BME280;50493;50.970;10.082;2022-11-20T02:41:06;98910.78;;;-2.46;63.61
64189;BME280;50493;50.970;10.082;2022-11-20T02:43:32;98904.72;;;-2.51;63.71
64189;BME280;50493;50.970;10.082;2022-11-20T02:45:57;98902.78;;;-2.60;63.94
64189;BME280;50493;50.970;10.082;2022-11-20T02:48:23;98905.16;;;-2.68;65.12
64189;BME280;50493;50.970;10.082;2022-11-20T02:50:48;98900.91;;;-2.67;64.62
64189;BME280;50493;50.970;10.082;2022-11-20T02:53:13;98901.00;;;-2.62;63.72
64189;BME280;50493;50.970;10.082;2022-11-20T02:55:39;98894.31;;;-2.57;64.11
64189;BME280;50493;50.970;10.082;2022-11-20T02:58:06;98890.94;;;-2.56;59.09
64189;BME280;50493;50.970;10.082;2022-11-20T03:00:31;98889.81;;;-2.68;62.95
64189;BME280;50493;50.970;10.082;2022-11-20T03:02:57;98896.81;;;-2.60;61.27
64189;BME280;50493;50.970;10.082;2022-11-20T03:05:22;98900.84;;;-2.70;63.08
64189;BME280;50493;50.970;10.082;2022-11-20T03:07:48;98889.94;;;-2.63;63.40
64189;BME280;50493;50.970;10.082;2022-11-20T03:10:13;98888.31;;;-2.59;64.34
64189;BME280;50493;50.970;10.082;2022-11-20T03:12:39;98884.09;;;-2.57;64.80
64189;BME280;50493;50.970;10.082;2022-11-20T03:15:07;98883.25;;;-2.56;64.59
64189;BME280;50493;50.970;10.082;2022-11-20T03:17:32;98885.34;;;-2.40;63.58
64189;BME280;50493;50.970;10.082;2022-11-20T03:19:58;98875.69;;;-2.50;58.10
64189;BME280;50493;50.970;10.082;2022-11-20T03:22:23;98872.53;;;-2.78;63.36
64189;BME280;50493;50.970;10.082;2022-11-20T03:24:49;98873.56;;;-2.70;64.15
64189;BME280;50493;50.970;10.082;2022-11-20T03:27:14;98868.84;;;-2.53;63.62
64189;BME280;50493;50.970;10.082;2022-11-20T03:29:40;98875.91;;;-2.41;62.93
64189;BME280;50493;50.970;10.082;2022-11-20T03:32:06;98880.19;;;-2.78;64.86
64189;BME280;50493;50.970;10.082;2022-11-20T03:34:32;98879.13;;;-2.51;64.31
64189;BME280;50493;50.970;10.082;2022-11-20T03:36:57;98882.78;;;-2.40;63.66
64189;BME280;50493;50.970;10.082;2022-11-20T03:39:23;98881.22;;;-2.33;63.50
64189;BME280;50493;50.970;10.082;2022-11-20T03:41:48;98875.59;;;-2.17;62.03
64189;BME280;50493;50.970;10.082;2022-11-20T03:44:14;98871.72;;;-1.97;60.07
64189;BME280;50493;50.970;10.082;2022-11-20T03:46:39;98875.69;;;-2.12;57.68
64189;BME280;50493;50.970;10.082;2022-11-20T03:49:06;98879.91;;;-2.54;61.16
64189;BME280;50493;50.970;10.082;2022-11-20T03:51:33;98874.22;;;-2.01;60.40
64189;BME280;50493;50.970;10.082;2022-11-20T03:54:00;98878.03;;;-2.23;58.63
64189;BME280;50493;50.970;10.082;2022-11-20T03:56:27;98879.13;;;-3.21;62.01
64189;BME280;50493;50.970;10.082;2022-11-20T03:58:53;98880.22;;;-3.11;62.06
64189;BME280;50493;50.970;10.082;2022-11-20T04:01:20;98879.97;;;-3.22;65.17
64189;BME280;50493;50.970;10.082;2022-11-20T04:03:46;98874.03;;;-2.86;65.41
64189;BME280;50493;50.970;10.082;2022-11-20T04:06:15;98879.56;;;-2.68;64.36
64189;BME280;50493;50.970;10.082;2022-11-20T04:08:41;98875.19;;;-2.73;64.32
64189;BME280;50493;50.970;10.082;2022-11-20T04:11:11;98881.16;;;-2.74;64.63
64189;BME280;50493;50.970;10.082;2022-11-20T04:13:37;98873.84;;;-2.57;63.01
64189;BME280;50493;50.970;10.082;2022-11-20T04:16:03;98866.44;;;-2.45;62.53
64189;BME280;50493;50.970;10.082;2022-11-20T04:18:29;98859.59;;;-2.46;62.64
64189;BME280;50493;50.970;10.082;2022-11-20T04:20:56;98852.00;;;-3.16;61.58
64189;BME280;50493;50.970;10.082;2022-11-20T04:23:23;98846.25;;;-3.41;63.66
64189;BME280;50493;50.970;10.082;2022-11-20T04:25:48;98846.44;;;-3.33;63.22
64189;BME280;50493;50.970;10.082;2022-11-20T04:28:13;98842.78;;;-2.73;63.87
64189;BME280;50493;50.970;10.082;2022-11-20T04:30:39;98832.78;;;-2.63;61.86
64189;BME280;50493;50.970;10.082;2022-11-20T04:33:04;98835.09;;;-3.44;62.59
64189;BME280;50493;50.970;10.082;2022-11-20T04:35:30;98834.91;;;-3.17;66.11
64189;BME280;50493;50.970;10.082;2022-11-20T04:37:55;98833.63;;;-2.99;65.71
64189;BME280;50493;50.970;10.082;2022-11-20T04:40:22;98838.00;;;-2.57;63.69
64189;BME280;50493;50.970;10.082;2022-11-20T04:42:47;98841.00;;;-2.77;64.73
64189;BME280;50493;50.970;10.082;2022-11-20T04:45:13;98842.50;;;-2.48;63.62
64189;BME280;50493;50.970;10.082;2022-11-20T04:47:38;98847.59;;;-2.48;63.63
64189;BME280;50493;50.970;10.082;2022-11-20T04:50:04;98848.56;;;-2.80;65.13
64189;BME280;50493;50.970;10.082;2022-11-20T04:52:30;98850.84;;;-2.56;63.98
64189;BME280;50493;50.970;10.082;2022-11-20T04:54:55;98845.13;;;-2.44;63.64
64189;BME280;50493;50.970;10.082;2022-11-20T04:57:22;98839.75;;;-2.56;63.95
64189;BME280;50493;50.970;10.082;2022-11-20T04:59:48;98836.50;;;-2.49;63.25
64189;BME280;50493;50.970;10.082;2022-11-20T05:02:13;98835.69;;;-2.46;63.72
64189;BME280;50493;50.970;10.082;2022-11-20T05:04:39;98836.38;;;-2.55;64.54
64189;BME280;50493;50.970;10.082;2022-11-20T05:07:04;98840.06;;;-2.41;63.78
64189;BME280;50493;50.970;10.082;2022-11-20T05:09:30;98838.69;;;-2.26;63.17
64189;BME280;50493;50.970;10.082;2022-11-20T05:11:55;98840.41;;;-2.25;62.52
64189;BME280;50493;50.970;10.082;2022-11-20T05:14:22;98843.44;;;-2.04;61.85
64189;BME280;50493;50.970;10.082;2022-11-20T05:16:47;98832.97;;;-2.54;62.47
64189;BME280;50493;50.970;10.082;2022-11-20T05:19:13;98835.59;;;-2.51;62.94
64189;BME280;50493;50.970;10.082;2022-11-20T05:21:38;98829.16;;;-2.34;61.78
64189;BME280;50493;50.970;10.082;2022-11-20T05:24:04;98833.75;;;-2.57;63.70
64189;BME280;50493;50.970;10.082;2022-11-20T05:26:30;98815.47;;;-2.74;63.96
64189;BME280;50493;50.970;10.082;2022-11-20T05:28:55;98817.34;;;-2.67;64.87
64189;BME280;50493;50.970;10.082;2022-11-20T05:31:24;98817.16;;;-2.36;63.37
64189;BME280;50493;50.970;10.082;2022-11-20T05:33:50;98811.78;;;-2.06;60.34
64189;BME280;50493;50.970;10.082;2022-11-20T05:36:16;98809.81;;;-2.60;63.38
64189;BME280;50493;50.970;10.082;2022-11-20T05:38:42;98804.91;;;-2.50;61.93
64189;BME280;50493;50.970;10.082;2022-11-20T05:41:10;98805.81;;;-2.46;63.67
64189;BME280;50493;50.970;10.082;2022-11-20T05:43:37;98799.22;;;-2.38;63.52
64189;BME280;50493;50.970;10.082;2022-11-20T05:46:04;98807.06;;;-2.28;63.09
64189;BME280;50493;50.970;10.082;2022-11-20T05:48:32;98806.06;;;-2.35;63.74
64189;BME280;50493;50.970;10.082;2022-11-20T05:50:58;98796.03;;;-2.24;62.94
64189;BME280;50493;50.970;10.082;2022-11-20T05:53:24;98807.81;;;-2.33;63.83
64189;BME280;50493;50.970;10.082;2022-11-20T05:55:56;98799.91;;;-2.02;62.30
64189;BME280;50493;50.970;10.082;2022-11-20T05:58:22;98786.47;;;-1.90;60.91
64189;BME280;50493;50.970;10.082;2022-11-20T06:00:47;98786.06;;;-2.12;62.57
64189;BME280;50493;50.970;10.082;2022-11-20T06:03:12;98796.47;;;-2.03;62.40
64189;BME280;50493;50.970;10.082;2022-11-20T06:05:39;98797.59;;;-1.88;61.65
64189;BME280;50493;50.970;10.082;2022-11-20T06:08:05;98792.69;;;-1.77;61.19
64189;BME280;50493;50.970;10.082;2022-11-20T06:10:30;98793.97;;;-2.01;61.88
64189;BME280;50493;50.970;10.082;2022-11-20T06:12:57;98788.47;;;-2.20;62.73
64189;BME280;50493;50.970;10.082;2022-11-20T06:15:22;98797.56;;;-2.33;63.79
64189;BME280;50493;50.970;10.082;2022-11-20T06:17:51;98797.19;;;-2.10;62.46
64189;BME280;50493;50.970;10.082;2022-11-20T06:20:17;98803.09;;;-2.14;62.40
64189;BME280;50493;50.970;10.082;2022-11-20T06:22:43;98807.91;;;-2.29;63.51
64189;BME280;50493;50.970;10.082;2022-11-20T06:25:09;98810.19;;;-2.01;62.29
64189;BME280;50493;50.970;10.082;2022-11-20T06:27:34;98811.56;;;-2.17;62.74
64189;BME280;50493;50.970;10.082;2022-11-20T06:30:00;98817.00;;;-2.42;63.63
64189;BME280;50493;50.970;10.082;2022-11-20T06:32:25;98825.28;;;-2.54;64.26
64189;BME280;50493;50.970;10.082;2022-11-20T06:34:50;98817.94;;;-2.39;64.00
64189;BME280;50493;50.970;10.082;2022-11-20T06:37:16;98817.69;;;-2.08;63.14
64189;BME280;50493;50.970;10.082;2022-11-20T06:39:43;98824.19;;;-1.83;62.50
64189;BME280;50493;50.970;10.082;2022-11-20T06:42:08;98814.22;;;-1.68;61.66
64189;BME280;50493;50.970;10.082;2022-11-20T06:44:33;98816.69;;;-1.23;61.13
64189;BME280;50493;50.970;10.082;2022-11-20T06:46:59;98805.88;;;-1.57;61.07
64189;BME280;50493;50.970;10.082;2022-11-20T06:49:25;98806.03;;;-1.48;60.56
64189;BME280;50493;50.970;10.082;2022-11-20T06:51:50;98814.13;;;-1.74;61.21
64189;BME280;50493;50.970;10.082;2022-11-20T06:54:16;98807.25;;;-1.75;61.17
64189;BME280;50493;50.970;10.082;2022-11-20T06:56:46;98799.75;;;-1.66;61.15
64189;BME280;50493;50.970;10.082;2022-11-20T06:59:11;98809.25;;;-1.58;60.74
64189;BME280;50493;50.970;10.082;2022-11-20T07:01:37;98815.47;;;-0.92;62.25
64189;BME280;50493;50.970;10.082;2022-11-20T07:04:02;98808.00;;;-0.79;59.85
64189;BME280;50493;50.970;10.082;2022-11-20T07:06:28;98805.16;;;-0.96;60.16
64189;BME280;50493;50.970;10.082;2022-11-20T07:08:53;98804.69;;;-1.26;59.90
64189;BME280;50493;50.970;10.082;2022-11-20T07:11:19;98806.47;;;-1.20;60.66
64189;BME280;50493;50.970;10.082;2022-11-20T07:13:46;98809.38;;;-1.00;59.87
64189;BME280;50493;50.970;10.082;2022-11-20T07:16:11;98817.47;;;-1.29;60.83
64189;BME280;50493;50.970;10.082;2022-11-20T07:18:37;98807.44;;;-1.15;59.59
64189;BME280;50493;50.970;10.082;2022-11-20T07:21:03;98811.47;;;-1.29;60.17
64189;BME280;50493;50.970;10.082;2022-11-20T07:23:29;98813.19;;;-1.28;61.28
64189;BME280;50493;50.970;10.082;2022-11-20T07:25:54;98800.50;;;-1.21;61.72
64189;BME280;50493;50.970;10.082;2022-11-20T07:28:20;98795.75;;;-0.96;60.77
64189;BME280;50493;50.970;10.082;2022-11-20T07:30:50;98805.00;;;-1.06;61.66
64189;BME280;50493;50.970;10.082;2022-11-20T07:33:16;98791.72;;;-0.80;63.22
64189;BME280;50493;50.970;10.082;2022-11-20T07:35:41;98788.59;;;-0.60;60.77
64189;BME280;50493;50.970;10.082;2022-11-20T07:38:07;98794.75;;;-1.06;62.76
64189;BME280;50493;50.970;10.082;2022-11-20T07:40:33;98795.75;;;-1.97;66.20
64189;BME280;50493;50.970;10.082;2022-11-20T07:42:58;98792.88;;;-1.67;63.67
64189;BME280;50493;50.970;10.082;2022-11-20T07:45:24;98790.84;;;-1.85;65.63
64189;BME280;50493;50.970;10.082;2022-11-20T07:47:51;98797.34;;;-1.56;65.40
64189;BME280;50493;50.970;10.082;2022-11-20T07:50:16;98795.63;;;-1.57;63.42
64189;BME280;50493;50.970;10.082;2022-11-20T07:52:42;98797.97;;;-1.19;62.14
64189;BME280;50493;50.970;10.082;2022-11-20T07:55:08;98800.50;;;-1.21;62.72
64189;BME280;50493;50.970;10.082;2022-11-20T07:57:34;98808.69;;;-1.42;64.01
64189;BME280;50493;50.970;10.082;2022-11-20T08:00:00;98807.28;;;-1.24;62.57
64189;BME280;50493;50.970;10.082;2022-11-20T08:02:25;98814.91;;;-1.27;61.09
64189;BME280;50493;50.970;10.082;2022-11-20T08:04:52;98808.75;;;-1.39;61.10
64189;BME280;50493;50.970;10.082;2022-11-20T08:07:17;98809.19;;;-1.11;62.45
64189;BME280;50493;50.970;10.082;2022-11-20T08:09:43;98805.38;;;-0.81;60.30
64189;BME280;50493;50.970;10.082;2022-11-20T08:12:09;98802.47;;;-1.03;59.61
64189;BME280;50493;50.970;10.082;2022-11-20T08:15:00;98805.16;;;-0.96;60.21
64189;BME280;50493;50.970;10.082;2022-11-20T08:17:26;98803.78;;;-0.73;61.19
64189;BME280;50493;50.970;10.082;2022-11-20T08:19:52;98807.75;;;-0.34;62.95
64189;BME280;50493;50.970;10.082;2022-11-20T08:22:18;98813.94;;;-0.18;60.51
64189;BME280;50493;50.970;10.082;2022-11-20T08:24:43;98812.00;;;-0.37;59.95
64189;BME280;50493;50.970;10.082;2022-11-20T08:27:09;98814.63;;;-0.33;62.34
64189;BME280;50493;50.970;10.082;2022-11-20T08:29:34;98812.22;;;-0.19;61.75
64189;BME280;50493;50.970;10.082;2022-11-20T08:32:00;98813.00;;;-0.24;59.75
64189;BME280;50493;50.970;10.082;2022-11-20T08:34:25;98819.47;;;-0.54;60.84
64189;BME280;50493;50.970;10.082;2022-11-20T08:36:52;98814.69;;;-0.88;60.10
64189;BME280;50493;50.970;10.082;2022-11-20T08:39:17;98813.25;;;-0.70;60.24
64189;BME280;50493;50.970;10.082;2022-11-20T08:41:43;98813.69;;;-0.98;59.45
64189;BME280;50493;50.970;10.082;2022-11-20T08:44:08;98819.06;;;-0.82;62.36
64189;BME280;50493;50.970;10.082;2022-11-20T08:46:35;98814.50;;;-0.42;61.73
64189;BME280;50493;50.970;10.082;2022-11-20T08:49:02;98819.19;;;-0.08;61.96
64189;BME280;50493;50.970;10.082;2022-11-20T08:51:28;98814.50;;;-0.42;59.66
64189;BME280;50493;50.970;10.082;2022-11-20T08:53:55;98812.16;;;-0.25;60.01
64189;BME280;50493;50.970;10.082;2022-11-20T08:56:20;98808.22;;;-0.64;59.47
64189;BME280;50493;50.970;10.082;2022-11-20T08:58:46;98809.28;;;-1.08;60.10
64189;BME280;50493;50.970;10.082;2022-11-20T09:01:11;98808.47;;;-1.04;60.16
64189;BME280;50493;50.970;10.082;2022-11-20T09:03:37;98807.84;;;-0.27;61.74
64189;BME280;50493;50.970;10.082;2022-11-20T09:06:04;98812.25;;;-0.17;60.74
64189;BME280;50493;50.970;10.082;2022-11-20T09:08:30;98812.06;;;-0.31;58.39
64189;BME280;50493;50.970;10.082;2022-11-20T09:10:57;98814.66;;;-0.30;58.51
64189;BME280;50493;50.970;10.082;2022-11-20T09:13:24;98810.97;;;-0.50;59.27
64189;BME280;50493;50.970;10.082;2022-11-20T09:15:53;98812.47;;;0.03;62.16
64189;BME280;50493;50.970;10.082;2022-11-20T09:18:18;98807.84;;;0.49;59.87
64189;BME280;50493;50.970;10.082;2022-11-20T09:20:43;98808.50;;;0.31;60.40
64189;BME280;50493;50.970;10.082;2022-11-20T09:23:09;98806.34;;;-0.10;58.35
64189;BME280;50493;50.970;10.082;2022-11-20T09:25:34;98812.66;;;-0.51;58.74
64189;BME280;50493;50.970;10.082;2022-11-20T09:28:01;98806.72;;;-0.50;58.80
64189;BME280;50493;50.970;10.082;2022-11-20T09:30:27;98806.09;;;-0.28;58.26
64189;BME280;50493;50.970;10.082;2022-11-20T09:32:52;98799.81;;;0.20;59.90
64189;BME280;50493;50.970;10.082;2022-11-20T09:35:18;98802.41;;;0.22;60.57
64189;BME280;50493;50.970;10.082;2022-11-20T09:37:43;98815.13;;;0.09;60.00
64189;BME280;50493;50.970;10.082;2022-11-20T09:40:19;98812.22;;;-0.83;60.25
64189;BME280;50493;50.970;10.082;2022-11-20T09:42:47;98813.47;;;-0.56;63.30
64189;BME280;50493;50.970;10.082;2022-11-20T09:45:23;98804.75;;;0.01;60.51
64189;BME280;50493;50.970;10.082;2022-11-20T09:48:00;98800.53;;;0.05;61.20
64189;BME280;50493;50.970;10.082;2022-11-20T09:50:30;98811.13;;;-0.38;61.98
64189;BME280;50493;50.970;10.082;2022-11-20T09:53:07;98813.78;;;-0.32;61.26
64189;BME280;50493;50.970;10.082;2022-11-20T09:55:37;98802.47;;;0.26;60.17
64189;BME280;50493;50.970;10.082;2022-11-20T09:58:05;98795.75;;;0.39;60.31
64189;BME280;50493;50.970;10.082;2022-11-20T10:00:34;98802.53;;;0.34;60.50
64189;BME280;50493;50.970;10.082;2022-11-20T10:03:02;98805.31;;;-0.24;65.15
64189;BME280;50493;50.970;10.082;2022-11-20T10:05:35;98804.94;;;-1.12;66.26
64189;BME280;50493;50.970;10.082;2022-11-20T10:08:10;98802.91;;;-0.76;68.88
64189;BME280;50493;50.970;10.082;2022-11-20T10:10:42;98800.66;;;-0.53;61.88
64189;BME280;50493;50.970;10.082;2022-11-20T10:13:24;98800.81;;;-0.41;61.26
64189;BME280;50493;50.970;10.082;2022-11-20T10:16:03;98799.19;;;-0.36;62.83
64189;BME280;50493;50.970;10.082;2022-11-20T10:18:42;98797.13;;;-0.61;64.27
64189;BME280;50493;50.970;10.082;2022-11-20T10:21:19;98800.72;;;-1.57;69.76
64189;BME280;50493;50.970;10.082;2022-11-20T10:24:02;98787.88;;;-0.49;63.64
64189;BME280;50493;50.970;10.082;2022-11-20T10:26:42;98790.84;;;-0.16;63.12
64189;BME280;50493;50.970;10.082;2022-11-20T10:29:11;98782.66;;;0.19;64.07
64189;BME280;50493;50.970;10.082;2022-11-20T10:31:40;98781.84;;;0.23;59.52
64189;BME280;50493;50.970;10.082;2022-11-20T10:34:18;98783.59;;;0.27;59.86
64189;BME280;50493;50.970;10.082;2022-11-20T10:36:49;98783.25;;;0.81;62.26
64189;BME280;50493;50.970;10.082;2022-11-20T10:39:19;98772.88;;;0.71;60.77
64189;BME280;50493;50.970;10.082;2022-11-20T10:41:50;98777.19;;;0.76;60.66
64189;BME280;50493;50.970;10.082;2022-11-20T10:44:20;98776.44;;;0.89;60.25
64189;BME280;50493;50.970;10.082;2022-11-20T10:47:13;98774.53;;;0.66;60.79
64189;BME280;50493;50.970;10.082;2022-11-20T10:49:39;98776.53;;;0.97;59.77
64189;BME280;50493;50.970;10.082;2022-11-20T10:52:12;98772.06;;;0.77;58.63
64189;BME280;50493;50.970;10.082;2022-11-20T10:54:47;98772.50;;;0.28;61.59
64189;BME280;50493;50.970;10.082;2022-11-20T10:57:24;98772.47;;;0.27;63.55
64189;BME280;50493;50.970;10.082;2022-11-20T11:00:03;98772.25;;;0.07;62.68
64189;BME280;50493;50.970;10.082;2022-11-20T11:02:38;98767.16;;;0.10;62.65
64189;BME280;50493;50.970;10.082;2022-11-20T11:05:32;98767.31;;;-0.49;65.48
64189;BME280;50493;50.970;10.082;2022-11-20T11:07:59;98756.00;;;0.09;62.34
64189;BME280;50493;50.970;10.082;2022-11-20T11:10:28;98746.56;;;0.07;60.10
64189;BME280;50493;50.970;10.082;2022-11-20T11:12:57;98748.28;;;0.05;64.06
64189;BME280;50493;50.970;10.082;2022-11-20T11:15:27;98740.69;;;0.17;63.29
64189;BME280;50493;50.970;10.082;2022-11-20T11:17:55;98741.59;;;0.22;63.18
64189;BME280;50493;50.970;10.082;2022-11-20T11:20:22;98738.44;;;-0.32;65.56
64189;BME280;50493;50.970;10.082;2022-11-20T11:22:50;98743.38;;;-0.46;65.13
64189;BME280;50493;50.970;10.082;2022-11-20T11:25:27;98741.63;;;0.25;65.75
64189;BME280;50493;50.970;10.082;2022-11-20T11:27:55;98741.28;;;-0.06;61.11
64189;BME280;50493;50.970;10.082;2022-11-20T11:30:22;98738.53;;;0.66;60.88
64189;BME280;50493;50.970;10.082;2022-11-20T11:32:48;98735.03;;;0.55;61.77
64189;BME280;50493;50.970;10.082;2022-11-20T11:35:26;98742.38;;;0.15;63.38
64189;BME280;50493;50.970;10.082;2022-11-20T11:37:53;98742.28;;;-0.67;68.38
64189;BME280;50493;50.970;10.082;2022-11-20T11:40:21;98747.41;;;-1.28;70.46
64189;BME280;50493;50.970;10.082;2022-11-20T11:42:53;98735.56;;;-0.55;67.59
64189;BME280;50493;50.970;10.082;2022-11-20T11:45:19;98733.69;;;0.05;65.89
64189;BME280;50493;50.970;10.082;2022-11-20T11:47:47;98738.50;;;-0.27;66.10
64189;BME280;50493;50.970;10.082;2022-11-20T11:50:19;98731.84;;;0.90;65.85
64189;BME280;50493;50.970;10.082;2022-11-20T11:52:55;98748.97;;;-0.10;66.04
64189;BME280;50493;50.970;10.082;2022-11-20T11:55:29;98744.94;;;0.18;65.47
64189;BME280;50493;50.970;10.082;2022-11-20T11:58:06;98740.31;;;0.74;64.33
64189;BME280;50493;50.970;10.082;2022-11-20T12:00:35;98740.63;;;1.25;64.56
64189;BME280;50493;50.970;10.082;2022-11-20T12:03:06;98733.34;;;0.60;63.44
64189;BME280;50493;50.970;10.082;2022-11-20T12:05:38;98736.69;;;0.48;66.30
64189;BME280;50493;50.970;10.082;2022-11-20T12:08:15;98733.53;;;0.88;64.30
64189;BME280;50493;50.970;10.082;2022-11-20T12:10:48;98726.91;;;1.24;64.20
64189;BME280;50493;50.970;10.082;2022-11-20T12:13:23;98728.69;;;1.36;62.26
64189;BME280;50493;50.970;10.082;2022-11-20T12:15:51;98729.28;;;0.92;63.17
64189;BME280;50493;50.970;10.082;2022-11-20T12:18:18;98720.56;;;0.69;63.66
64189;BME280;50493;50.970;10.082;2022-11-20T12:20:51;98719.00;;;0.92;65.00
64189;BME280;50493;50.970;10.082;2022-11-20T12:23:22;98718.31;;;1.22;63.58
64189;BME280;50493;50.970;10.082;2022-11-20T12:25:55;98712.50;;;1.60;61.22
64189;BME280;50493;50.970;10.082;2022-11-20T12:28:32;98712.53;;;1.77;62.05
64189;BME280;50493;50.970;10.082;2022-11-20T12:31:18;98713.25;;;1.36;61.78
64189;BME280;50493;50.970;10.082;2022-11-20T12:33:55;98716.91;;;2.01;61.15
64189;BME280;50493;50.970;10.082;2022-11-20T12:36:34;98715.19;;;1.94;62.69
64189;BME280;50493;50.970;10.082;2022-11-20T12:39:24;98707.34;;;1.68;60.24
64189;BME280;50493;50.970;10.082;2022-11-20T12:42:08;98716.75;;;1.53;58.54
64189;BME280;50493;50.970;10.082;2022-11-20T12:45:11;98711.97;;;0.66;60.28
64189;BME280;50493;50.970;10.082;2022-11-20T12:47:51;98712.94;;;0.83;60.09
64189;BME280;50493;50.970;10.082;2022-11-20T12:50:30;98708.19;;;1.62;61.67
64189;BME280;50493;50.970;10.082;2022-11-20T12:53:04;98710.00;;;1.89;59.37
64189;BME280;50493;50.970;10.082;2022-11-20T12:55:38;98708.25;;;1.81;60.39
64189;BME280;50493;50.970;10.082;2022-11-20T12:58:12;98704.88;;;1.94;61.59
64189;BME280;50493;50.970;10.082;2022-11-20T13:00:47;98701.41;;;1.86;61.07